createdAt,value
2022-11-30T00:00:22.707Z,23.92
2022-11-30T00:04:34.984Z,28.00
2022-11-30T00:08:47.726Z,23.90
2022-11-30T00:12:59.999Z,30.02
2022-11-30T00:17:12.282Z,24.20
2022-11-30T00:21:24.553Z,20.27
2022-11-30T00:25:37.675Z,22.10
2022-11-30T00:29:49.938Z,21.77
2022-11-30T00:34:02.202Z,22.40
2022-11-30T00:38:14.510Z,22.02
2022-11-30T00:42:26.794Z,20.67
2022-11-30T00:46:48.864Z,23.63
2022-11-30T00:51:01.131Z,23.27
2022-11-30T00:55:13.418Z,24.75
2022-11-30T00:59:34.711Z,25.67
2022-11-30T01:03:47.032Z,18.50
2022-11-30T01:08:01.722Z,20.80
2022-11-30T01:12:13.988Z,20.38
2022-11-30T01:16:32.348Z,21.33
2022-11-30T01:20:44.939Z,28.20
2022-11-30T01:24:57.194Z,22.58
2022-11-30T01:29:09.502Z,25.23
2022-11-30T01:33:21.763Z,24.15
2022-11-30T01:37:38.935Z,26.02
2022-11-30T01:41:51.325Z,21.98
2022-11-30T01:46:03.911Z,25.10
2022-11-30T01:50:34.212Z,30.63
2022-11-30T01:54:52.839Z,27.13
2022-11-30T01:59:05.255Z,28.15
2022-11-30T02:03:40.555Z,22.42
2022-11-30T02:07:53.780Z,27.33
2022-11-30T02:12:43.218Z,30.83
2022-11-30T02:17:13.791Z,28.27
2022-11-30T02:21:48.497Z,24.13
2022-11-30T02:26:43.723Z,25.40
2022-11-30T02:31:00.040Z,33.33
2022-11-30T02:35:14.537Z,22.50
2022-11-30T02:39:26.934Z,25.55
2022-11-30T02:43:40.168Z,32.03
2022-11-30T02:48:01.753Z,26.55
2022-11-30T02:52:15.671Z,23.40
2022-11-30T02:56:28.277Z,24.08
2022-11-30T03:00:40.544Z,23.30
2022-11-30T03:04:52.857Z,23.38
2022-11-30T03:09:05.322Z,24.70
2022-11-30T03:13:17.629Z,20.15
2022-11-30T03:17:29.913Z,22.67
2022-11-30T03:21:42.213Z,21.15
2022-11-30T03:25:59.536Z,19.85
2022-11-30T03:30:22.155Z,22.40
2022-11-30T03:34:34.436Z,19.33
2022-11-30T03:38:48.393Z,17.65
2022-11-30T03:43:00.654Z,24.80
2022-11-30T03:47:12.928Z,27.15
2022-11-30T03:51:25.241Z,22.73
2022-11-30T03:55:37.550Z,19.45
2022-11-30T03:59:49.808Z,20.65
2022-11-30T04:04:02.091Z,21.45
2022-11-30T04:08:15.206Z,19.63
2022-11-30T04:12:27.478Z,19.30
2022-11-30T04:16:39.738Z,17.38
2022-11-30T04:20:59.151Z,15.85
2022-11-30T04:25:21.437Z,16.67
2022-11-30T04:29:33.678Z,17.05
2022-11-30T04:33:45.955Z,16.23
2022-11-30T04:38:04.477Z,20.00
2022-11-30T04:42:16.958Z,18.65
2022-11-30T04:46:30.283Z,16.90
2022-11-30T04:50:42.660Z,19.67
2022-11-30T04:54:55.257Z,23.20
2022-11-30T04:59:07.667Z,15.90
2022-11-30T05:03:19.906Z,14.95
2022-11-30T05:07:32.300Z,16.80
2022-11-30T05:11:44.572Z,14.57
2022-11-30T05:15:56.966Z,16.17
2022-11-30T05:20:09.660Z,18.35
2022-11-30T05:24:21.934Z,17.95
2022-11-30T05:28:34.250Z,14.07
2022-11-30T05:32:46.876Z,19.33
2022-11-30T05:37:09.155Z,13.90
2022-11-30T05:41:21.547Z,16.63
2022-11-30T05:45:33.812Z,16.70
2022-11-30T05:49:46.087Z,19.98
2022-11-30T05:53:59.658Z,17.00
2022-11-30T05:58:12.446Z,21.77
2022-11-30T06:02:28.157Z,21.88
2022-11-30T06:06:40.852Z,19.27
2022-11-30T06:11:02.561Z,17.95
2022-11-30T06:15:15.000Z,21.05
2022-11-30T06:19:27.522Z,17.98
2022-11-30T06:23:39.959Z,17.55
2022-11-30T06:27:52.497Z,15.55
2022-11-30T06:32:07.916Z,21.08
2022-11-30T06:36:23.942Z,22.27
2022-11-30T06:40:36.297Z,20.48
2022-11-30T06:44:49.719Z,24.00
2022-11-30T06:49:02.977Z,25.17
2022-11-30T06:53:15.238Z,26.70
2022-11-30T06:57:31.533Z,21.17
2022-11-30T07:01:43.765Z,22.42
2022-11-30T07:05:56.110Z,30.35
2022-11-30T07:10:09.167Z,22.35
2022-11-30T07:14:21.519Z,24.13
2022-11-30T07:18:34.692Z,27.13
2022-11-30T07:22:47.014Z,19.67
2022-11-30T07:27:01.251Z,25.33
2022-11-30T07:31:24.927Z,21.58
2022-11-30T07:35:37.273Z,21.83
2022-11-30T07:39:49.599Z,18.60
2022-11-30T07:44:01.870Z,18.67
2022-11-30T07:48:14.145Z,20.88
2022-11-30T07:52:26.400Z,25.50
2022-11-30T07:56:39.720Z,26.33
2022-11-30T08:00:52.052Z,25.77
2022-11-30T08:05:04.879Z,21.40
2022-11-30T08:09:20.717Z,21.88
2022-11-30T08:13:34.074Z,22.08
2022-11-30T08:17:46.454Z,22.98
2022-11-30T08:21:58.812Z,24.23
2022-11-30T08:26:32.527Z,25.92
2022-11-30T08:30:44.868Z,22.33
2022-11-30T08:34:57.263Z,19.13
2022-11-30T08:39:19.569Z,20.05
2022-11-30T08:43:32.525Z,16.25
2022-11-30T08:47:45.314Z,20.85
2022-11-30T08:56:29.864Z,18.27
2022-11-30T09:00:42.148Z,15.05
2022-11-30T09:04:54.800Z,21.30
2022-11-30T09:09:07.267Z,14.35
2022-11-30T09:13:19.586Z,15.30
2022-11-30T09:17:31.932Z,14.10
2022-11-30T09:21:49.766Z,14.60
2022-11-30T09:26:09.173Z,13.63
2022-11-30T09:30:21.598Z,13.65
2022-11-30T09:34:33.868Z,14.10
2022-11-30T09:38:46.748Z,9.35
2022-11-30T09:43:07.919Z,10.90
2022-11-30T09:47:34.640Z,14.70
2022-11-30T09:52:00.728Z,12.38
2022-11-30T09:56:26.150Z,12.93
2022-11-30T10:00:40.119Z,8.68
2022-11-30T10:04:52.470Z,7.72
2022-11-30T10:09:15.199Z,5.88
2022-11-30T10:14:21.984Z,8.30
2022-11-30T10:18:42.137Z,7.85
2022-11-30T10:23:11.371Z,8.07
2022-11-30T10:27:47.777Z,10.15
2022-11-30T10:32:01.649Z,10.27
2022-11-30T10:36:25.223Z,12.30
2022-11-30T10:40:45.039Z,12.30
2022-11-30T10:45:04.266Z,16.10
2022-11-30T10:53:39.154Z,14.63
2022-11-30T10:58:08.272Z,13.57
2022-11-30T11:02:39.542Z,13.60
2022-11-30T11:06:58.697Z,14.88
2022-11-30T11:11:33.535Z,11.50
2022-11-30T11:16:00.076Z,12.13
2022-11-30T11:20:33.377Z,14.38
2022-11-30T11:24:46.577Z,14.15
2022-11-30T11:29:00.360Z,11.50
2022-11-30T11:33:15.445Z,11.80
2022-11-30T11:37:31.745Z,13.60
2022-11-30T11:41:44.072Z,15.15
2022-11-30T11:45:59.862Z,12.25
2022-11-30T11:55:22.163Z,12.02
2022-11-30T12:00:02.912Z,13.77
2022-11-30T12:04:43.387Z,12.40
2022-11-30T12:09:04.221Z,15.35
2022-11-30T12:13:19.869Z,9.23
2022-11-30T12:17:38.172Z,11.45
2022-11-30T12:22:02.325Z,10.38
2022-11-30T12:26:39.376Z,8.82
2022-11-30T12:31:12.599Z,12.20
2022-11-30T12:35:43.265Z,9.35
2022-11-30T12:40:14.015Z,8.82
2022-11-30T12:44:54.127Z,8.35
2022-11-30T12:49:27.094Z,9.23
2022-11-30T12:53:50.820Z,7.53
2022-11-30T12:58:32.065Z,7.25
2022-11-30T13:02:56.345Z,8.60
2022-11-30T13:07:34.404Z,11.48
2022-11-30T13:11:54.630Z,9.60
2022-11-30T13:16:09.280Z,16.88
2022-11-30T13:20:39.728Z,11.10
2022-11-30T13:25:00.210Z,14.40
2022-11-30T13:29:17.274Z,12.38
2022-11-30T13:33:35.648Z,10.18
2022-11-30T13:38:34.604Z,10.27
2022-11-30T13:42:44.992Z,13.48
2022-11-30T13:47:03.778Z,16.13
2022-11-30T13:51:37.254Z,17.15
2022-11-30T13:55:49.774Z,17.95
2022-11-30T14:00:32.032Z,15.32
2022-11-30T14:04:48.347Z,17.40
2022-11-30T14:09:00.765Z,15.93
2022-11-30T14:13:31.390Z,20.08
2022-11-30T14:17:43.809Z,18.65
2022-11-30T14:21:57.711Z,21.67
2022-11-30T14:26:13.632Z,23.08
2022-11-30T14:30:26.076Z,19.70
2022-11-30T14:34:44.628Z,16.45
2022-11-30T14:38:57.010Z,18.03
2022-11-30T14:43:17.899Z,17.27
2022-11-30T14:47:37.258Z,17.40
2022-11-30T14:51:58.449Z,17.02
2022-11-30T14:56:49.010Z,16.65
2022-11-30T15:01:04.319Z,15.43
2022-11-30T15:05:21.551Z,17.80
2022-11-30T15:09:33.954Z,22.45
2022-11-30T15:13:49.535Z,16.70
2022-11-30T15:18:21.912Z,17.33
2022-11-30T15:22:35.039Z,18.80
2022-11-30T15:26:55.673Z,22.02
2022-11-30T15:31:11.471Z,16.75
2022-11-30T15:35:38.814Z,16.02
2022-11-30T15:40:01.687Z,17.58
2022-11-30T15:44:44.975Z,12.32
2022-11-30T15:49:07.777Z,13.02
2022-11-30T15:53:36.942Z,14.80
2022-11-30T15:58:03.710Z,17.35
2022-11-30T16:02:28.028Z,13.02
2022-11-30T16:06:48.638Z,16.08
2022-11-30T16:11:06.296Z,17.60
2022-11-30T16:15:29.682Z,13.65
2022-11-30T16:19:42.024Z,20.48
2022-11-30T16:23:54.555Z,14.43
2022-11-30T16:28:11.071Z,14.77
2022-11-30T16:32:27.803Z,14.68
2022-11-30T16:36:40.154Z,15.55
2022-11-30T16:40:54.824Z,13.55
2022-11-30T16:45:15.162Z,16.73
2022-11-30T16:49:28.749Z,15.10
2022-11-30T16:53:42.482Z,14.35
2022-11-30T16:57:56.414Z,13.18
2022-11-30T17:02:19.185Z,15.13
2022-11-30T17:06:41.536Z,15.57
2022-11-30T17:10:55.360Z,15.25
2022-11-30T17:15:12.263Z,12.88
2022-11-30T17:19:24.537Z,14.23
2022-11-30T17:23:36.794Z,16.95
2022-11-30T17:27:53.229Z,21.13
2022-11-30T17:32:05.667Z,11.75
2022-11-30T17:36:19.626Z,14.52
2022-11-30T17:40:44.750Z,16.55
2022-11-30T17:44:57.219Z,14.80
2022-11-30T17:49:09.519Z,18.77
2022-11-30T17:53:21.865Z,13.95
2022-11-30T17:57:34.204Z,16.02
2022-11-30T18:01:56.540Z,15.18
2022-11-30T18:06:08.982Z,18.80
2022-11-30T18:10:21.261Z,18.77
2022-11-30T18:14:33.536Z,19.08
2022-11-30T18:18:48.177Z,18.30
2022-11-30T18:23:01.023Z,17.73
2022-11-30T18:27:13.300Z,18.67
2022-11-30T18:31:26.537Z,20.30
2022-11-30T18:35:38.863Z,21.60
2022-11-30T18:39:51.284Z,17.45
2022-11-30T18:44:03.551Z,14.10
2022-11-30T18:48:15.862Z,16.52
2022-11-30T18:52:28.127Z,23.15
2022-11-30T18:56:40.494Z,17.73
2022-11-30T19:00:52.754Z,16.92
2022-11-30T19:05:10.399Z,18.77
2022-11-30T19:09:25.675Z,15.75
2022-11-30T19:13:38.213Z,19.05
2022-11-30T19:17:50.564Z,18.77
2022-11-30T19:22:02.866Z,18.50
2022-11-30T19:26:15.509Z,20.02
2022-11-30T19:30:28.357Z,16.50
2022-11-30T19:34:40.668Z,17.58
2022-11-30T19:38:53.684Z,17.50
2022-11-30T19:43:06.166Z,18.80
2022-11-30T19:47:18.458Z,19.02
2022-11-30T19:51:31.496Z,17.67
2022-11-30T19:55:44.109Z,20.25
2022-11-30T19:59:56.399Z,20.00
2022-11-30T20:04:08.692Z,20.60
2022-11-30T20:08:20.983Z,19.63
2022-11-30T20:12:33.320Z,24.73
2022-11-30T20:16:45.589Z,20.40
2022-11-30T20:20:57.868Z,20.13
2022-11-30T20:25:10.407Z,18.08
2022-11-30T20:29:22.718Z,21.35
2022-11-30T20:33:39.493Z,27.00
2022-11-30T20:37:51.827Z,21.90
2022-11-30T20:42:04.351Z,30.90
2022-11-30T20:46:23.924Z,22.02
2022-11-30T20:50:36.450Z,23.70
2022-11-30T20:54:49.423Z,20.92
2022-11-30T20:59:03.494Z,21.35
2022-11-30T21:03:15.878Z,21.67
2022-11-30T21:07:38.362Z,21.45
2022-11-30T21:11:50.692Z,22.55
2022-11-30T21:16:07.741Z,21.17
2022-11-30T21:20:20.047Z,24.77
2022-11-30T21:24:32.471Z,25.52
2022-11-30T21:28:46.491Z,19.52
2022-11-30T21:32:58.812Z,21.20
2022-11-30T21:37:11.802Z,24.42
2022-11-30T21:41:24.101Z,21.77
2022-11-30T21:45:36.397Z,24.40
2022-11-30T21:49:48.671Z,24.00
2022-11-30T21:54:02.812Z,24.77
2022-11-30T21:58:15.071Z,23.42
2022-11-30T22:02:27.385Z,20.73
2022-11-30T22:06:41.304Z,25.10
2022-11-30T22:10:53.941Z,26.48
2022-11-30T22:15:06.560Z,24.02
2022-11-30T22:19:19.209Z,20.73
2022-11-30T22:23:33.291Z,26.80
2022-11-30T22:27:45.567Z,22.77
2022-11-30T22:31:58.679Z,21.42
2022-11-30T22:36:23.373Z,21.20
2022-11-30T22:40:35.615Z,23.88
2022-11-30T22:44:47.986Z,20.27
2022-11-30T22:49:01.942Z,20.70
2022-11-30T22:53:14.223Z,19.08
2022-11-30T22:57:26.567Z,25.05
2022-11-30T23:01:44.722Z,23.10
2022-11-30T23:05:57.025Z,20.58
2022-11-30T23:10:10.053Z,28.02
2022-11-30T23:14:22.340Z,22.92
2022-11-30T23:18:40.725Z,27.58
2022-11-30T23:22:52.986Z,28.87
2022-11-30T23:27:05.262Z,28.67
2022-11-30T23:31:32.495Z,25.67
2022-11-30T23:35:47.623Z,29.98
2022-11-30T23:39:59.897Z,26.67
2022-11-30T23:44:12.797Z,30.23
2022-11-30T23:48:26.063Z,30.50
2022-11-30T23:52:38.352Z,25.13
2022-11-30T23:56:50.698Z,28.77
